Time;durP1;ratioP1;P1;durP2;ratioP2;P2;SDS_P1;SDS_P2;PMS_P1;PMS_P2;Temp;Humidity;BMP_temperature;BMP_pressure;BME280_temperature;BME280_humidity;BME280_pressure;Samples;Min_cycle;Max_cycle;Signal;HPM_P1;HPM_P2
2021/03/08 00:01:43;;;;;;;;;;;51.70;1459.20;;;;;;5034255;28;20026;-77
2021/03/08 00:04:09;;;;;;;67.80;30.55;;;51.70;1484.80;;;;;;5016349;28;19909;-77
2021/03/08 00:06:35;;;;;;;69.88;29.85;;;51.70;1510.40;;;;;;5033926;28;20371;-77
2021/03/08 00:09:00;;;;;;;;;;;51.60;1510.40;;;;;;5016496;28;20533;-77
2021/03/08 00:11:26;;;;;;;84.78;35.45;;;51.60;1484.80;;;;;;5016578;28;19905;-77
2021/03/08 00:13:51;;;;;;;;;;;51.70;1459.20;;;;;;5034072;28;20474;-77
2021/03/08 00:16:17;;;;;;;66.97;31.77;;;51.70;1510.40;;;;;;5034211;28;19975;-77
2021/03/08 00:18:43;;;;;;;76.22;32.90;;;51.70;1484.80;;;;;;5034139;28;20041;-77
2021/03/08 00:21:08;;;;;;;73.28;33.55;;;51.60;1484.80;;;;;;5034067;28;20021;-77
2021/03/08 00:23:34;;;;;;;74.85;31.80;;;51.80;1484.80;;;;;;5034082;28;20116;-77
2021/03/08 00:25:59;;;;;;;;;;;51.80;1484.80;;;;;;5034186;28;20785;-77
2021/03/08 00:28:25;;;;;;;79.97;35.00;;;51.60;1484.80;;;;;;5016984;28;20365;-77
2021/03/08 00:30:51;;;;;;;78.25;36.85;;;51.60;1459.20;;;;;;5033556;28;20097;-77
2021/03/08 00:33:17;;;;;;;;;;;51.60;1459.20;;;;;;5033606;28;20434;-77
2021/03/08 00:35:42;;;;;;;75.57;33.67;;;51.70;1459.20;;;;;;5033966;28;19962;-76
2021/03/08 00:38:08;;;;;;;;;;;51.90;1459.20;;;;;;5034363;28;20425;-77
2021/03/08 00:40:34;;;;;;;101.78;44.65;;;52.00;1433.60;;;;;;5017072;28;19905;-77
2021/03/08 00:42:59;;;;;;;;;;;51.90;1433.60;;;;;;5034053;28;20462;-77
2021/03/08 00:45:25;;;;;;;100.93;41.47;;;51.90;1459.20;;;;;;5034875;28;19905;-77
2021/03/08 00:47:51;;;;;;;92.30;41.63;;;52.00;1459.20;;;;;;5034869;28;20025;-77
2021/03/08 00:50:19;;;;;;;110.40;48.33;;;76.80;1433.60;;;;;;5017313;28;20053;-77
2021/03/08 00:52:45;;;;;;;91.78;43.15;;;52.10;1433.60;;;;;;5016867;28;20017;-77
2021/03/08 00:55:15;;;;;;;94.60;41.35;;;52.00;1484.80;;;;;;5016765;28;20038;-77
2021/03/08 00:57:41;;;;;;;102.32;43.15;;;52.00;1459.20;;;;;;5016526;28;20120;-77
2021/03/08 01:00:10;;;;;;;100.47;45.50;;;51.90;1484.80;;;;;;5016846;28;20032;-77
2021/03/08 01:02:36;;;;;;;126.75;57.00;;;52.00;1459.20;;;;;;5016473;28;20523;-77
2021/03/08 01:05:03;;;;;;;124.03;54.97;;;52.10;1433.60;;;;;;5016452;28;20026;-77
2021/03/08 01:07:29;;;;;;;107.45;48.05;;;76.80;1459.20;;;;;;5019463;28;20088;-77
2021/03/08 01:09:54;;;;;;;102.55;48.08;;;76.80;1510.40;;;;;;5025472;28;20445;-77
2021/03/08 01:12:20;;;;;;;;;;;76.80;1536.00;;;;;;5018539;28;20029;-77
2021/03/08 01:14:46;;;;;;;108.93;45.72;;;76.80;1561.60;;;;;;5018554;28;19913;-77
2021/03/08 01:17:12;;;;;;;98.47;45.67;;;52.10;1587.20;;;;;;5036354;28;20041;-77
2021/03/08 01:19:37;;;;;;;92.78;42.45;;;52.10;1612.80;;;;;;5018728;28;20029;-77
2021/03/08 01:22:03;;;;;;;;;;;52.00;1587.20;;;;;;5018844;28;20026;-77
2021/03/08 01:24:29;;;;;;;95.65;46.00;;;51.90;1587.20;;;;;;5018697;28;19905;-77
2021/03/08 01:26:54;;;;;;;;;;;51.80;1587.20;;;;;;5036711;28;20469;-77
2021/03/08 01:29:20;;;;;;;102.90;45.08;;;52.00;1561.60;;;;;;5018438;28;19952;-77
2021/03/08 01:31:45;;;;;;;;;;;52.10;1561.60;;;;;;5019064;28;20017;-77
2021/03/08 01:34:11;;;;;;;104.22;46.80;;;52.10;1536.00;;;;;;5035759;28;20385;-77
2021/03/08 01:36:37;;;;;;;104.78;45.05;;;52.10;1536.00;;;;;;5018497;28;20389;-77
2021/03/08 01:39:04;;;;;;;;;;;52.00;1561.60;;;;;;5036517;28;20548;-77
2021/03/08 01:41:29;;;;;;;90.45;42.30;;;51.80;1612.80;;;;;;5018199;28;19905;-77
2021/03/08 01:43:55;;;;;;;97.68;43.92;;;51.60;1612.80;;;;;;5036042;28;20045;-77
2021/03/08 01:46:21;;;;;;;97.90;43.50;;;51.60;1612.80;;;;;;5035951;28;20052;-77
2021/03/08 01:48:47;;;;;;;;;;;51.50;1638.40;;;;;;5018278;28;20026;-77
2021/03/08 01:51:13;;;;;;;92.88;41.95;;;51.40;1612.80;;;;;;5035837;28;19912;-77
2021/03/08 01:53:39;;;;;;;86.78;42.42;;;51.30;1612.80;;;;;;5018157;28;20052;-77
2021/03/08 01:56:04;;;;;;;;;;;51.20;1638.40;;;;;;5018355;28;20033;-77
2021/03/08 01:58:31;;;;;;;87.85;40.72;;;26.30;1638.40;;;;;;5020939;28;19913;-77
2021/03/08 02:00:57;;;;;;;94.00;42.03;;;26.40;1587.20;;;;;;5017979;28;20026;-77
2021/03/08 02:03:23;;;;;;;85.25;39.17;;;26.50;1612.80;;;;;;5035416;28;20022;-77
2021/03/08 02:05:49;;;;;;;98.68;43.72;;;51.40;1664.00;;;;;;5017886;28;20030;-77
2021/03/08 02:08:18;;;;;;;111.40;44.15;;;51.40;1664.00;;;;;;5017375;28;20052;-77
2021/03/08 02:10:45;;;;;;;103.95;45.20;;;51.60;1664.00;;;;;;5017556;28;20037;-77
2021/03/08 02:13:42;;;;;;;100.57;43.45;;;51.40;1638.40;;;;;;5016932;28;20037;-77
2021/03/08 02:16:15;;;;;;;98.93;44.97;;;51.30;1638.40;;;;;;5035471;28;20223;-77
2021/03/08 02:18:55;;;;;;;95.95;42.05;;;26.50;1638.40;;;;;;5016503;28;20094;-77
2021/03/08 02:21:36;;;;;;;91.35;44.10;;;51.30;1689.60;;;;;;5017571;28;20164;-77
2021/03/08 02:24:27;;;;;;;102.93;42.35;;;26.50;1638.40;;;;;;5017376;28;20048;-77
2021/03/08 02:26:54;;;;;;;91.63;42.00;;;26.50;1638.40;;;;;;5017509;28;20030;-77
2021/03/08 02:29:44;;;;;;;92.75;38.88;;;51.20;1689.60;;;;;;5017037;28;20025;-77
2021/03/08 02:32:12;;;;;;;96.80;44.15;;;51.30;1638.40;;;;;;5017317;28;20026;-78
2021/03/08 02:35:02;;;;;;;93.13;42.08;;;26.50;1689.60;;;;;;5034889;28;20021;-77
2021/03/08 02:37:31;;;;;;;91.45;42.78;;;51.20;1689.60;;;;;;5016897;28;20037;-77
2021/03/08 02:40:13;;;;;;;96.40;44.20;;;26.50;1689.60;;;;;;5016866;28;20033;-77
2021/03/08 02:42:41;;;;;;;102.60;49.10;;;26.50;1689.60;;;;;;5017135;28;20025;-77
2021/03/08 02:45:09;;;;;;;96.88;43.13;;;26.50;1689.60;;;;;;5016982;28;20049;-77
2021/03/08 02:47:44;;;;;;;112.43;48.47;;;51.20;1715.20;;;;;;5034661;28;20472;-77
2021/03/08 02:50:11;;;;;;;103.18;43.42;;;51.20;1715.20;;;;;;5017294;28;20064;-76
2021/03/08 02:52:42;;;;;;;108.82;43.97;;;51.30;1715.20;;;;;;5032934;28;20389;-77
2021/03/08 02:55:10;;;;;;;97.60;42.35;;;26.50;1664.00;;;;;;5034555;28;20088;-77
2021/03/08 02:57:40;;;;;;;105.65;46.10;;;26.30;1689.60;;;;;;5034595;28;20138;-77
2021/03/08 03:00:09;;;;;;;98.18;45.45;;;26.10;1715.20;;;;;;5034051;28;20143;-77
2021/03/08 03:02:37;;;;;;;99.90;46.95;;;25.70;1817.60;;;;;;5009540;28;20110;-77
2021/03/08 03:05:07;;;;;;;93.85;44.85;;;25.80;1817.60;;;;;;5034677;28;20500;-76
2021/03/08 03:07:35;;;;;;;94.55;43.35;;;26.00;1792.00;;;;;;5034485;28;20045;-77
2021/03/08 03:10:04;;;;;;;91.22;41.72;;;25.80;1792.00;;;;;;5034331;28;20018;-77
2021/03/08 03:12:32;;;;;;;86.03;40.67;;;26.00;1766.40;;;;;;5016596;28;20420;-76
2021/03/08 03:14:59;;;;;;;84.28;38.53;;;25.90;1715.20;;;;;;5016767;28;20511;-77
2021/03/08 03:17:26;;;;;;;80.18;35.13;;;0.90;1715.20;;;;;;5016456;28;20536;-77
2021/03/08 03:19:53;;;;;;;71.30;33.60;;;0.50;1740.80;;;;;;5016826;28;20030;-77
2021/03/08 03:22:22;;;;;;;73.00;31.60;;;0.20;1766.40;;;;;;5034056;28;20045;-77
2021/03/08 03:24:53;;;;;;;70.35;31.05;;;0.20;1766.40;;;;;;5016647;28;20436;-77
2021/03/08 03:27:22;;;;;;;76.80;31.73;;;0.30;1715.20;;;;;;5016224;28;20087;-77
2021/03/08 03:29:49;;;;;;;69.13;34.65;;;0.60;1715.20;;;;;;5016382;28;20083;-77
2021/03/08 03:32:15;;;;;;;76.75;35.67;;;0.80;1715.20;;;;;;5016392;28;20091;-76
2021/03/08 03:34:44;;;;;;;82.13;32.50;;;0.90;1715.20;;;;;;5033641;28;20485;-77
2021/03/08 03:37:12;;;;;;;66.72;32.67;;;25.60;1740.80;;;;;;5033785;28;20045;-76
2021/03/08 03:39:37;;;;;;;72.75;31.83;;;0.70;1715.20;;;;;;5016235;28;20025;-77
2021/03/08 03:42:04;;;;;;;69.68;31.95;;;0.50;1740.80;;;;;;5034010;28;20496;-77
2021/03/08 03:44:30;;;;;;;72.05;32.00;;;0.70;1740.80;;;;;;5033567;28;20025;-77
2021/03/08 03:46:57;;;;;;;78.93;33.90;;;0.50;1766.40;;;;;;5033925;28;20013;-77
2021/03/08 03:49:23;;;;;;;76.10;35.33;;;0.30;1766.40;;;;;;5015889;28;20029;-77
2021/03/08 03:51:49;;;;;;;76.20;33.40;;;0.60;1740.80;;;;;;5008910;28;20026;-77
2021/03/08 03:54:15;;;;;;;;;;;0.90;1740.80;;;;;;5009960;28;20452;-77
2021/03/08 03:56:50;;;;;;;80.35;34.45;;;0.90;1740.80;;;;;;5015867;28;19915;-77
2021/03/08 03:59:23;;;;;;;77.00;36.55;;;25.60;1689.60;;;;;;5033501;28;20029;-76
2021/03/08 04:02:01;;;;;;;83.47;36.08;;;25.60;1715.20;;;;;;5015902;28;20025;-77
2021/03/08 04:04:40;;;;;;;79.97;38.97;;;25.60;1715.20;;;;;;5033641;28;20018;-77
2021/03/08 04:07:08;;;;;;;71.65;32.22;;;0.60;1740.80;;;;;;5016460;28;20034;-77
2021/03/08 04:09:35;;;;;;;76.68;33.83;;;0.40;1740.80;;;;;;5027046;28;20013;-77
2021/03/08 04:12:02;;;;;;;81.30;36.13;;;0.20;1766.40;;;;;;5015658;28;20036;-78
2021/03/08 04:14:32;;;;;;;73.03;32.30;;;0.70;1766.40;;;;;;5015719;28;20029;-77
2021/03/08 04:17:00;;;;;;;70.55;33.38;;;0.70;1766.40;;;;;;5032824;28;20033;-76
2021/03/08 04:19:29;;;;;;;76.95;35.90;;;0.70;1766.40;;;;;;5033247;28;20401;-76
2021/03/08 04:22:05;;;;;;;79.63;35.13;;;0.40;1792.00;;;;;;5015415;28;20237;-77
2021/03/08 04:24:37;;;;;;;57.60;27.17;;;0.50;1792.00;;;;;;5033314;28;20021;-77
2021/03/08 04:27:06;;;;;;;98.25;39.88;;;0.70;1792.00;;;;;;5015521;28;20026;-77
2021/03/08 04:29:36;;;;;;;84.18;36.63;;;0.80;1766.40;;;;;;5014889;28;20026;-77
2021/03/08 04:32:02;;;;;;;86.93;37.75;;;0.90;1766.40;;;;;;5015443;28;20390;-77
2021/03/08 04:34:30;;;;;;;83.40;38.17;;;0.90;1792.00;;;;;;5015186;28;20034;-77
2021/03/08 04:36:58;;;;;;;77.78;36.10;;;0.90;1792.00;;;;;;5033114;28;20032;-77
2021/03/08 04:39:25;;;;;;;83.55;37.20;;;0.60;1792.00;;;;;;5015174;28;20469;-77
2021/03/08 04:41:52;;;;;;;86.78;38.97;;;0.20;1817.60;;;;;;5014851;28;20018;-77
2021/03/08 04:44:18;;;;;;;106.32;43.65;;;0.10;1843.20;;;;;;5015126;28;20025;-77
2021/03/08 04:46:44;;;;;;;;;;;12.90;1843.20;;;;;;5015624;28;20067;-77
2021/03/08 04:49:10;;;;;;;88.03;37.67;;;13.00;1843.20;;;;;;5015232;28;19958;-76
2021/03/08 04:51:37;;;;;;;;;;;13.20;1843.20;;;;;;5015176;28;20126;-77
2021/03/08 04:54:04;;;;;;;63.95;28.42;;;13.20;1817.60;;;;;;5015168;28;19932;-77
2021/03/08 04:56:33;;;;;;;87.35;36.78;;;13.40;1817.60;;;;;;5015185;28;20033;-77
2021/03/08 04:59:03;;;;;;;106.60;45.45;;;13.60;1843.20;;;;;;5015025;28;20127;-76
2021/03/08 05:01:33;;;;;;;92.13;42.03;;;13.30;1920.00;;;;;;5015068;28;20496;-77
2021/03/08 05:04:01;;;;;;;100.78;45.60;;;13.40;1996.80;;;;;;5015096;28;20029;-77
2021/03/08 05:06:29;;;;;;;98.85;43.85;;;13.30;2048.00;;;;;;5013246;28;20034;-77
2021/03/08 05:08:57;;;;;;;102.68;46.90;;;13.30;2124.80;;;;;;5017064;28;20030;-77
2021/03/08 05:11:23;;;;;;;107.18;42.83;;;13.20;2073.60;;;;;;5015014;28;20040;-77
2021/03/08 05:13:51;;;;;;;105.38;44.88;;;0.10;2022.40;;;;;;5015019;28;20025;-77
2021/03/08 05:16:20;;;;;;;107.13;44.55;;;0.40;1945.60;;;;;;5015175;28;20508;-78
2021/03/08 05:18:46;;;;;;;99.32;43.50;;;0.60;1920.00;;;;;;5032513;28;20478;-77
2021/03/08 05:21:14;;;;;;;104.32;45.22;;;0.80;1894.40;;;;;;5015102;28;20022;-77
2021/03/08 05:23:42;;;;;;;105.72;46.20;;;25.60;1843.20;;;;;;5015165;28;20084;-78
2021/03/08 05:26:08;;;;;;;97.68;43.60;;;25.60;1843.20;;;;;;5015146;28;20071;-77
2021/03/08 05:28:35;;;;;;;103.93;45.88;;;26.00;1843.20;;;;;;5015209;28;20048;-77
2021/03/08 05:31:02;;;;;;;105.28;45.63;;;25.70;1843.20;;;;;;5014858;28;20048;-78
2021/03/08 05:33:30;;;;;;;118.82;53.25;;;25.80;1817.60;;;;;;5015019;28;20132;-77
2021/03/08 05:35:58;;;;;;;124.18;52.42;;;25.80;1817.60;;;;;;5015108;28;20056;-77
2021/03/08 05:38:26;;;;;;;127.88;56.17;;;26.00;1817.60;;;;;;5015187;28;20050;-77
2021/03/08 05:41:19;;;;;;;119.30;54.97;;;26.00;1817.60;;;;;;5032469;28;20105;-78
2021/03/08 05:43:48;;;;;;;122.90;55.00;;;25.90;1817.60;;;;;;5015225;28;20017;-78
2021/03/08 05:46:45;;;;;;;122.43;55.25;;;25.90;1817.60;;;;;;5032424;28;20454;-78
2021/03/08 05:49:44;;;;;;;101.68;44.92;;;26.00;1843.20;;;;;;5004540;28;20092;-77
2021/03/08 05:52:21;;;;;;;128.43;53.40;;;26.00;1843.20;;;;;;5005530;28;20030;-77
2021/03/08 05:55:22;;;;;;;137.93;60.22;;;26.00;1843.20;;;;;;5018200;28;20049;-77
2021/03/08 05:58:09;;;;;;;105.50;47.42;;;26.10;1843.20;;;;;;5021681;28;20482;-77
2021/03/08 06:00:53;;;;;;;137.65;57.85;;;26.00;1868.80;;;;;;5017902;28;20025;-77
2021/03/08 06:03:34;;;;;;;128.65;56.17;;;26.00;1843.20;;;;;;5031987;28;20063;-77
2021/03/08 06:07:01;;;;;;;140.52;61.38;;;26.00;1868.80;;;;;;5035956;28;20048;-77
2021/03/08 06:09:28;;;;;;;122.80;54.15;;;26.00;1868.80;;;;;;4974729;28;20120;-77
2021/03/08 06:12:05;;;;;;;124.40;51.95;;;26.00;1817.60;;;;;;4974753;28;20443;-77
2021/03/08 06:14:42;;;;;;;111.90;50.65;;;26.00;1843.20;;;;;;4974614;28;20077;-77
2021/03/08 06:17:15;;;;;;;111.22;51.95;;;26.20;1817.60;;;;;;4974246;28;20041;-77
2021/03/08 06:19:42;;;;;;;124.85;53.53;;;26.30;1843.20;;;;;;4958187;28;20031;-77
2021/03/08 06:22:12;;;;;;;116.22;54.00;;;26.40;1792.00;;;;;;4958183;28;20467;-77
2021/03/08 06:24:40;;;;;;;136.15;60.42;;;51.20;1817.60;;;;;;4975132;28;20066;-78
2021/03/08 06:27:07;;;;;;;148.05;64.22;;;51.40;1817.60;;;;;;4974370;28;20039;-76
2021/03/08 06:29:35;;;;;;;156.43;69.97;;;51.60;1817.60;;;;;;4974250;28;20393;-76
2021/03/08 06:32:03;;;;;;;133.75;58.70;;;51.80;1792.00;;;;;;4974399;28;20041;-77
2021/03/08 06:34:29;;;;;;;128.07;56.22;;;51.90;1817.60;;;;;;4974388;28;20046;-77
2021/03/08 06:36:55;;;;;;;127.13;59.10;;;76.80;1817.60;;;;;;4959772;28;20035;-77
2021/03/08 06:39:21;;;;;;;122.35;56.53;;;77.00;1792.00;;;;;;4967936;28;20055;-77
2021/03/08 06:41:47;;;;;;;119.15;57.05;;;77.20;1792.00;;;;;;5017423;28;20380;-78
2021/03/08 06:44:13;;;;;;;;;;;77.30;1817.60;;;;;;5019757;28;20440;-78
2021/03/08 06:46:40;;;;;;;107.32;48.67;;;77.30;1817.60;;;;;;5023110;28;19909;-77
2021/03/08 06:49:05;;;;;;;102.63;51.60;;;77.60;1817.60;;;;;;5042321;28;20024;-78
2021/03/08 06:51:31;;;;;;;105.35;54.35;;;102.40;1817.60;;;;;;5027926;28;20033;-78
2021/03/08 06:53:57;;;;;;;;;;;102.50;1792.00;;;;;;5028333;28;20041;-77
2021/03/08 06:56:25;;;;;;;76.55;38.47;;;102.60;1792.00;;;;;;5019345;28;19958;-78
2021/03/08 06:59:05;;;;;;;77.97;39.13;;;102.70;1740.80;;;;;;5016205;28;20038;-78
2021/03/08 07:01:42;;;;;;;89.47;40.63;;;102.80;1689.60;;;;;;5016780;28;20021;-77
2021/03/08 07:04:12;;;;;;;;;;;103.00;1664.00;;;;;;5022644;28;20094;-76
2021/03/08 07:06:37;;;;;;;90.45;43.08;;;103.10;1638.40;;;;;;5041956;28;19949;-77
2021/03/08 07:09:11;;;;;;;87.90;43.88;;;103.20;1612.80;;;;;;5024202;28;20068;-75
2021/03/08 07:11:38;;;;;;;88.88;43.97;;;103.30;1612.80;;;;;;5038580;28;20057;-77
2021/03/08 07:14:16;;;;;;;;;;;128.00;1638.40;;;;;;5020529;28;20033;-77
2021/03/08 07:16:42;;;;;;;83.43;41.03;;;128.10;1638.40;;;;;;5019633;28;20339;-77
2021/03/08 07:19:08;;;;;;;78.10;42.72;;;128.20;1612.80;;;;;;5027867;28;20125;-77
2021/03/08 07:21:34;;;;;;;81.50;41.97;;;128.30;1612.80;;;;;;5022806;28;20021;-78
2021/03/08 07:24:09;;;;;;;;;;;128.50;1587.20;;;;;;5045424;28;20025;-80
2021/03/08 07:26:35;;;;;;;70.38;35.45;;;128.70;1536.00;;;;;;5042971;28;19970;-76
2021/03/08 07:29:13;;;;;;;;;;;128.80;1510.40;;;;;;5016273;28;20121;-76
2021/03/08 07:31:43;;;;;;;66.53;35.55;;;128.90;1536.00;;;;;;5016397;28;19908;-77
2021/03/08 07:34:10;;;;;;;66.05;35.05;;;153.70;1536.00;;;;;;5016182;28;20036;-77
2021/03/08 07:36:37;;;;;;;76.72;38.03;;;153.80;1510.40;;;;;;5016619;28;20417;-75
2021/03/08 07:39:10;;;;;;;70.32;36.95;;;153.80;1510.40;;;;;;5015491;28;20061;-76
2021/03/08 07:41:50;;;;;;;66.85;36.75;;;153.90;1510.40;;;;;;5031647;28;20036;-77
2021/03/08 07:44:18;;;;;;;59.70;32.22;;;154.00;1484.80;;;;;;5033869;28;20025;-77
2021/03/08 07:46:44;;;;;;;68.38;38.92;;;154.10;1433.60;;;;;;5033759;28;20059;-76
2021/03/08 07:49:09;;;;;;;72.22;36.47;;;154.10;1459.20;;;;;;5015820;28;20060;-76
2021/03/08 07:51:35;;;;;;;;;;;154.30;1459.20;;;;;;5033227;28;20025;-77
2021/03/08 07:54:01;;;;;;;68.65;37.17;;;154.30;1433.60;;;;;;5014810;28;19917;-76
2021/03/08 07:56:28;;;;;;;64.40;35.95;;;154.40;1433.60;;;;;;5033085;28;20048;-76
2021/03/08 07:58:54;;;;;;;63.10;34.78;;;154.40;1433.60;;;;;;5015185;28;20192;-76
2021/03/08 08:01:20;;;;;;;56.45;30.45;;;154.50;1433.60;;;;;;5032879;28;20021;-77
2021/03/08 08:03:46;;;;;;;50.15;26.10;;;179.20;1382.40;;;;;;5036697;28;20544;-75
2021/03/08 08:06:13;;;;;;;53.88;30.23;;;179.30;1331.20;;;;;;5041938;28;20030;-74
2021/03/08 08:08:50;;;;;;;39.40;22.95;;;179.40;1356.80;;;;;;5044604;28;20029;-74
2021/03/08 08:11:17;;;;;;;30.02;19.27;;;179.40;1305.60;;;;;;5041284;28;20028;-74
2021/03/08 08:13:50;;;;;;;31.77;18.50;;;179.50;1254.40;;;;;;5042951;28;20029;-76
2021/03/08 08:16:21;;;;;;;35.58;20.95;;;179.50;1280.00;;;;;;5032441;28;20025;-75
2021/03/08 08:18:49;;;;;;;32.13;18.60;;;179.50;1305.60;;;;;;5042281;28;20033;-75
2021/03/08 08:21:17;;;;;;;26.50;15.80;;;179.60;1305.60;;;;;;5043807;28;20545;-74
2021/03/08 08:23:45;;;;;;;37.05;17.92;;;179.40;1280.00;;;;;;5024569;28;20038;-77
2021/03/08 08:26:16;;;;;;;29.23;17.95;;;179.70;1280.00;;;;;;5024250;28;20388;-78
2021/03/08 08:28:45;;;;;;;24.38;15.77;;;179.60;1305.60;;;;;;5040774;28;20017;-78
2021/03/08 08:31:12;;;;;;;30.10;17.15;;;179.80;1254.40;;;;;;5040557;28;20021;-81
2021/03/08 08:33:40;;;;;;;29.92;16.40;;;179.90;1254.40;;;;;;5018012;28;20113;-78
2021/03/08 08:36:15;;;;;;;26.10;14.15;;;180.00;1228.80;;;;;;5021148;28;20114;-78
2021/03/08 08:39:02;;;;;;;19.23;11.52;;;180.10;1203.20;;;;;;5041082;28;20038;-78
2021/03/08 08:41:32;;;;;;;17.17;10.70;;;180.10;1126.40;;;;;;5036931;28;20072;-74
2021/03/08 08:44:08;;;;;;;22.42;11.57;;;180.00;1126.40;;;;;;5014939;28;20382;-75
2021/03/08 08:46:38;;;;;;;23.77;10.75;;;204.80;1126.40;;;;;;5014814;28;20026;-76
2021/03/08 08:49:18;;;;;;;18.92;10.68;;;180.10;1100.80;;;;;;5032894;28;20052;-76
2021/03/08 08:51:54;;;;;;;19.90;10.57;;;204.90;1075.20;;;;;;5017712;28;20033;-76
2021/03/08 08:54:32;;;;;;;22.27;11.85;;;180.10;1126.40;;;;;;5023576;28;20401;-76
2021/03/08 08:57:08;;;;;;;23.98;13.20;;;204.80;1126.40;;;;;;5020127;28;20436;-76
2021/03/08 08:59:35;;;;;;;21.05;9.18;;;205.10;1126.40;;;;;;5039715;28;20048;-75
2021/03/08 09:02:18;;;;;;;14.55;9.48;;;204.90;1100.80;;;;;;5026038;28;20025;-75
2021/03/08 09:04:45;;;;;;;15.32;9.90;;;205.20;1075.20;;;;;;5042314;28;20029;-76
2021/03/08 09:07:21;;;;;;;15.50;9.55;;;205.20;1126.40;;;;;;5041378;28;20425;-76
2021/03/08 09:09:47;;;;;;;12.73;7.80;;;205.30;1049.60;;;;;;5046466;28;20074;-76
2021/03/08 09:12:28;;;;;;;;;;;205.50;1075.20;;;;;;5036094;28;20029;-75
2021/03/08 09:14:56;;;;;;;15.25;9.75;;;205.60;1049.60;;;;;;5041869;28;19999;-75
2021/03/08 09:17:25;;;;;;;17.77;11.32;;;205.70;1049.60;;;;;;5040979;28;20018;-75
2021/03/08 09:19:56;;;;;;;18.88;11.45;;;230.40;1024.00;;;;;;5039204;28;20492;-75
2021/03/08 09:22:22;;;;;;;16.13;10.98;;;230.50;1024.00;;;;;;5041413;28;20374;-75
2021/03/08 09:24:49;;;;;;;;;;;230.60;998.40;;;;;;5044123;28;20035;-76
2021/03/08 09:27:21;;;;;;;21.10;12.73;;;230.60;1024.00;;;;;;5039273;28;20269;-74
2021/03/08 09:29:48;;;;;;;22.55;13.25;;;230.60;1049.60;;;;;;5038870;28;20091;-74
2021/03/08 09:32:14;;;;;;;18.23;11.68;;;230.40;1100.80;;;;;;5045578;28;20017;-75
2021/03/08 09:34:40;;;;;;;20.27;13.73;;;230.60;1024.00;;;;;;5046804;28;20048;-73
2021/03/08 09:37:06;;;;;;;;;;;230.70;1024.00;;;;;;5044196;28;20017;-74
2021/03/08 09:39:32;;;;;;;18.88;11.90;;;231.00;998.40;;;;;;5040829;28;19911;-74
2021/03/08 09:42:01;;;;;;;22.15;12.48;;;231.10;972.80;;;;;;5043994;28;20056;-76
2021/03/08 09:44:43;;;;;;;24.92;12.13;;;231.20;972.80;;;;;;5038520;28;20045;-77
2021/03/08 09:47:09;;;;;;;18.88;11.77;;;231.20;998.40;;;;;;5027188;28;20469;-76
2021/03/08 09:49:51;;;;;;;;;;;231.10;972.80;;;;;;5024467;28;20022;-76
2021/03/08 09:52:38;;;;;;;20.20;12.70;;;231.00;1024.00;;;;;;5026080;28;19944;-76
2021/03/08 09:55:07;;;;;;;18.33;12.18;;;231.20;972.80;;;;;;5044058;28;20542;-77
2021/03/08 09:57:37;;;;;;;18.08;12.77;;;231.30;972.80;;;;;;5025048;28;20442;-77
2021/03/08 10:00:14;;;;;;;18.67;12.52;;;231.10;947.20;;;;;;5034378;28;20055;-75
2021/03/08 10:02:40;;;;;;;20.58;12.90;;;231.10;947.20;;;;;;5042622;28;20033;-78
2021/03/08 10:05:08;;;;;;;22.77;13.80;;;256.00;947.20;;;;;;5039266;28;20029;-78
2021/03/08 10:07:34;;;;;;;16.55;12.57;;;256.50;921.60;;;;;;5022554;28;20025;-76
2021/03/08 10:10:10;;;;;;;;;;;256.80;896.00;;;;;;5040396;28;20021;-77
2021/03/08 10:12:36;;;;;;;19.15;11.88;;;281.60;921.60;;;;;;5017674;28;19992;-77
2021/03/08 10:15:02;;;;;;;;;;;256.70;921.60;;;;;;5035784;28;20096;-75
2021/03/08 10:17:28;;;;;;;22.33;13.03;;;256.80;921.60;;;;;;5045829;28;20380;-83
2021/03/08 10:19:54;;;;;;;;;;;282.00;896.00;;;;;;5028459;28;20028;-76
2021/03/08 10:22:37;;;;;;;18.67;12.03;;;282.20;896.00;;;;;;5026589;28;19928;-77
2021/03/08 10:25:34;;;;;;;22.20;13.57;;;307.20;947.20;;;;;;5042853;28;20018;-77
2021/03/08 10:28:04;;;;;;;18.45;13.38;;;307.60;870.40;;;;;;5055145;28;20469;-75
2021/03/08 10:30:34;;;;;;;22.63;13.90;;;307.50;870.40;;;;;;5037487;28;20033;-76
2021/03/08 10:33:02;;;;;;;21.30;15.07;;;307.80;819.20;;;;;;5037113;28;20021;-76
2021/03/08 10:35:32;;;;;;;24.35;14.85;;;308.00;819.20;;;;;;5036802;28;20116;-76
2021/03/08 10:37:59;;;;;;;23.02;14.52;;;308.10;819.20;;;;;;5054656;28;20033;-77
2021/03/08 10:40:25;;;;;;;19.70;13.15;;;332.90;793.60;;;;;;5053286;28;20427;-76
2021/03/08 10:42:51;;;;;;;23.98;16.30;;;332.80;793.60;;;;;;5037038;28;20392;-76
2021/03/08 10:45:18;;;;;;;20.73;13.70;;;308.00;793.60;;;;;;5053458;28;20508;-76
2021/03/08 10:47:44;;;;;;;21.73;13.85;;;307.90;793.60;;;;;;5053849;28;20031;-76
2021/03/08 10:50:09;;;;;;;28.85;16.23;;;307.30;844.80;;;;;;5043778;28;20104;-78
2021/03/08 10:52:35;;;;;;;24.10;13.98;;;307.40;844.80;;;;;;5044515;28;20422;-78
2021/03/08 10:55:01;;;;;;;;;;;307.60;844.80;;;;;;5025832;28;20053;-78
2021/03/08 10:57:27;;;;;;;25.30;15.13;;;307.80;896.00;;;;;;5025100;28;19962;-78
2021/03/08 10:59:57;;;;;;;24.25;14.45;;;307.80;896.00;;;;;;5025659;28;20041;-76
2021/03/08 11:02:24;;;;;;;23.65;15.52;;;307.70;870.40;;;;;;5022756;28;20137;-76
2021/03/08 11:05:11;;;;;;;20.92;13.85;;;307.70;844.80;;;;;;5051408;28;20090;-77
2021/03/08 11:07:37;;;;;;;26.77;15.07;;;307.70;819.20;;;;;;5036035;28;20037;-76
2021/03/08 11:10:05;;;;;;;21.48;14.18;;;307.50;819.20;;;;;;5035573;28;20032;-77
2021/03/08 11:12:31;;;;;;;23.60;15.18;;;307.80;793.60;;;;;;5054431;28;20377;-77
2021/03/08 11:14:59;;;;;;;20.30;13.73;;;308.10;768.00;;;;;;5054211;28;20029;-76
2021/03/08 11:17:41;;;;;;;23.58;13.50;;;333.10;793.60;;;;;;5050852;28;20033;-77
2021/03/08 11:20:14;;;;;;;22.67;15.00;;;333.20;793.60;;;;;;5025095;28;20017;-77
2021/03/08 11:22:49;;;;;;;23.67;14.55;;;333.50;819.20;;;;;;5022755;28;20036;-76
2021/03/08 11:25:27;;;;;;;18.25;13.02;;;358.60;742.40;;;;;;5043130;28;20177;-77
2021/03/08 11:27:55;;;;;;;19.83;13.85;;;358.80;665.60;;;;;;5041243;28;20072;-76
2021/03/08 11:30:22;;;;;;;20.83;13.75;;;359.00;691.20;;;;;;5026257;28;20047;-77
2021/03/08 11:32:55;;;;;;;19.08;13.60;;;359.00;691.20;;;;;;5028555;28;20091;-76
2021/03/08 11:35:30;;;;;;;22.08;14.05;;;359.30;691.20;;;;;;5053857;28;20473;-77
2021/03/08 11:38:12;;;;;;;23.90;14.93;;;384.00;665.60;;;;;;5050408;28;20087;-77
2021/03/08 11:40:46;;;;;;;27.60;16.52;;;384.60;665.60;;;;;;5037637;28;20104;-77
2021/03/08 11:43:16;;;;;;;22.55;14.02;;;384.40;640.00;;;;;;5040509;28;20028;-77
2021/03/08 11:45:42;;;;;;;20.25;13.85;;;384.60;640.00;;;;;;5053714;28;20029;-77
2021/03/08 11:48:08;;;;;;;18.63;13.35;;;384.60;640.00;;;;;;5053701;28;20027;-78
2021/03/08 11:50:36;;;;;;;23.38;14.10;;;384.60;640.00;;;;;;5053624;28;20017;-78
2021/03/08 11:53:02;;;;;;;20.90;14.30;;;384.90;640.00;;;;;;5023038;28;20029;-77
2021/03/08 11:55:28;;;;;;;19.50;13.68;;;384.80;614.40;;;;;;5033333;28;20045;-77
2021/03/08 11:57:54;;;;;;;23.17;13.55;;;384.40;640.00;;;;;;5033567;28;20037;-77
2021/03/08 12:00:23;;;;;;;19.90;13.57;;;384.70;614.40;;;;;;5033593;28;20022;-77
2021/03/08 12:02:49;;;;;;;22.95;15.45;;;384.70;640.00;;;;;;5033432;28;20069;-78
2021/03/08 12:05:16;;;;;;;18.35;13.95;;;384.60;665.60;;;;;;5033359;28;20117;-78
2021/03/08 12:07:42;;;;;;;19.40;12.77;;;384.70;665.60;;;;;;5016152;28;20195;-78
2021/03/08 12:10:10;;;;;;;19.55;13.32;;;384.90;614.40;;;;;;5025802;28;20491;-78
2021/03/08 12:12:36;;;;;;;23.67;11.95;;;409.70;665.60;;;;;;5038434;28;20073;-78
2021/03/08 12:15:06;;;;;;;19.98;12.25;;;409.70;665.60;;;;;;5020749;28;20048;-77
2021/03/08 12:17:32;;;;;;;18.55;12.10;;;410.00;665.60;;;;;;5034454;28;20090;-77
2021/03/08 12:19:59;;;;;;;17.95;12.95;;;409.70;665.60;;;;;;5037014;28;20053;-77
2021/03/08 12:22:25;;;;;;;19.25;13.40;;;384.80;665.60;;;;;;5036196;28;20048;-77
2021/03/08 12:24:51;;;;;;;18.65;12.98;;;384.70;640.00;;;;;;5036836;28;20114;-76
2021/03/08 12:27:17;;;;;;;21.55;13.13;;;409.80;665.60;;;;;;5016741;28;20017;-77
2021/03/08 12:29:43;;;;;;;26.80;17.50;;;409.80;691.20;;;;;;5017523;28;20473;-76